Sterling, Massachusetts
Current Conditions -  °F | °C
As of 8:52 PM on Wednesday 26 Nov 2014 (Local Time) from KFIT Reporting Station
Light Snow Light Snow  
Wind Chill: 25°   Ceiling: 1000
Heat Index: 34°   Visibility: 1mi
Dew Point: 30°   Wind: 14mph
Humidity: 85%   Direction: 350°N
Pressure: 29.78"   Gusts: 20mph
Location:  42.44°N, 71.76°W
Report Text: KFIT 270152Z AUTO 35012G17KT 1SM -SN BR OVC010 01/M01 A2978 RMK AO2 RAB02E05 SLP089 P0007 T00111011
Loading
Personal Weather Stations






























Interactive Weather Map New forecast layout! Learn more

10-Day Weather Forecast

Advertisements
Track Severe Weather on mobile